Time;durP1;ratioP1;P1;durP2;ratioP2;P2;SDS_P1;SDS_P2;PMS_P1;PMS_P2;Temp;Humidity;BMP_temperature;BMP_pressure;BME280_temperature;BME280_humidity;BME280_pressure;Samples;Min_cycle;Max_cycle;Signal;HPM_P1;HPM_P2
2022/06/27 00:00:24;;;;;;;11.18;6.68;;;;;;;;;;5044018;28;20033;-74
2022/06/27 00:02:50;;;;;;;11.95;5.35;;;;;;;;;;5039339;28;20044;-72
2022/06/27 00:05:16;;;;;;;11.73;7.05;;;;;;;;;;5041719;28;20056;-74
2022/06/27 00:07:42;;;;;;;10.18;6.22;;;;;;;;;;5043627;28;20049;-75
2022/06/27 00:10:09;;;;;;;18.33;6.97;;;;;;;;;;5043549;28;20077;-74
2022/06/27 00:12:35;;;;;;;9.05;6.32;;;;;;;;;;5046665;28;20418;-74
2022/06/27 00:15:02;;;;;;;15.55;7.03;;;;;;;;;;5039631;28;20041;-75
2022/06/27 00:17:28;;;;;;;13.75;6.65;;;;;;;;;;5038566;28;20068;-75
2022/06/27 00:19:54;;;;;;;14.45;7.18;;;;;;;;;;5046358;28;20059;-73
2022/06/27 00:22:20;;;;;;;10.35;6.55;;;;;;;;;;5036547;28;20049;-74
2022/06/27 00:24:46;;;;;;;15.50;7.80;;;;;;;;;;5040619;28;20032;-73
2022/06/27 00:27:13;;;;;;;16.30;7.25;;;;;;;;;;5037343;28;20064;-74
2022/06/27 00:29:40;;;;;;;13.68;7.05;;;;;;;;;;5039245;28;20103;-74
2022/06/27 00:32:07;;;;;;;12.90;7.93;;;;;;;;;;5029977;28;20036;-74
2022/06/27 00:34:33;;;;;;;9.77;7.30;;;;;;;;;;5033402;28;20111;-74
2022/06/27 00:37:00;;;;;;;13.27;8.05;;;;;;;;;;5026395;28;20083;-75
2022/06/27 00:39:26;;;;;;;13.68;7.47;;;;;;;;;;5031621;28;20050;-74
2022/06/27 00:41:52;;;;;;;13.63;8.00;;;;;;;;;;5028418;28;20024;-74
2022/06/27 00:44:38;;;;;;;13.88;7.82;;;;;;;;;;5028206;28;20094;-74
2022/06/27 00:47:06;;;;;;;13.50;8.98;;;;;;;;;;5028228;28;20036;-73
2022/06/27 00:49:32;;;;;;;16.58;8.05;;;;;;;;;;5033776;28;20034;-72
2022/06/27 00:51:58;;;;;;;17.08;7.88;;;;;;;;;;5029615;28;20056;-73
2022/06/27 00:54:25;;;;;;;13.85;8.30;;;;;;;;;;5032503;28;20466;-73
2022/06/27 00:56:51;;;;;;;17.00;8.90;;;;;;;;;;5032765;28;20072;-74
2022/06/27 00:59:18;;;;;;;13.23;7.72;;;;;;;;;;5025733;28;20082;-73
2022/06/27 01:01:44;;;;;;;13.50;8.02;;;;;;;;;;5030078;28;20076;-74
2022/06/27 01:04:10;;;;;;;16.77;8.27;;;;;;;;;;5024939;28;20045;-74
2022/06/27 01:06:36;;;;;;;18.00;8.15;;;;;;;;;;5029475;28;20036;-74
2022/06/27 01:09:03;;;;;;;15.48;8.25;;;;;;;;;;5026045;28;20033;-73
2022/06/27 01:11:29;;;;;;;14.55;9.10;;;;;;;;;;5027847;28;20083;-73
2022/06/27 01:13:55;;;;;;;19.05;8.65;;;;;;;;;;5037388;28;20112;-74
2022/06/27 01:16:23;;;;;;;12.02;7.90;;;;;;;;;;5030920;28;20049;-74
2022/06/27 01:18:49;;;;;;;12.77;8.73;;;;;;;;;;5017022;28;20550;-74
2022/06/27 01:21:20;;;;;;;15.05;9.30;;;;;;;;;;5024429;28;20030;-74
2022/06/27 01:23:46;;;;;;;18.40;9.63;;;;;;;;;;5032966;28;20033;-74
2022/06/27 01:26:13;;;;;;;13.40;9.65;;;;;;;;;;5052918;28;20024;-73
2022/06/27 01:28:39;;;;;;;15.80;8.85;;;;;;;;;;5035418;28;20041;-74
2022/06/27 01:31:05;;;;;;;17.23;9.35;;;;;;;;;;5018299;28;20588;-74
2022/06/27 01:33:31;;;;;;;13.48;8.90;;;;;;;;;;5034963;28;20137;-74
2022/06/27 01:38:42;;;;;;;17.95;9.85;;;;;;;;;;5038250;28;20057;-75
2022/06/27 01:41:08;;;;;;;13.88;9.60;;;;;;;;;;5040758;28;20038;-73
2022/06/27 01:43:34;;;;;;;18.38;9.00;;;;;;;;;;5040717;28;20041;-73
2022/06/27 01:46:01;;;;;;;13.13;9.02;;;;;;;;;;5036576;28;20044;-74
2022/06/27 01:48:27;;;;;;;16.55;9.65;;;;;;;;;;5042062;28;20014;-74
2022/06/27 01:50:54;;;;;;;17.17;9.70;;;;;;;;;;5038898;28;20037;-73
2022/06/27 01:53:21;;;;;;;17.02;9.88;;;;;;;;;;5038769;28;20125;-74
2022/06/27 01:55:47;;;;;;;18.88;10.50;;;;;;;;;;5024130;28;20063;-74
2022/06/27 01:58:14;;;;;;;18.23;10.10;;;;;;;;;;5043580;28;20032;-72
2022/06/27 02:00:40;;;;;;;16.75;10.40;;;;;;;;;;5037191;28;20541;-74
2022/06/27 02:03:06;;;;;;;14.52;9.70;;;;;;;;;;5043530;28;20045;-74
2022/06/27 02:05:33;;;;;;;13.35;9.60;;;;;;;;;;5023278;28;20076;-75
2022/06/27 02:07:59;;;;;;;15.18;9.23;;;;;;;;;;5033700;28;20361;-73
2022/06/27 02:10:25;;;;;;;17.73;9.20;;;;;;;;;;5036180;28;20033;-73
2022/06/27 02:12:52;;;;;;;15.23;9.60;;;;;;;;;;5035419;28;20026;-73
2022/06/27 02:15:18;;;;;;;14.95;9.20;;;;;;;;;;5038171;28;20067;-73
2022/06/27 02:17:44;;;;;;;15.02;10.30;;;;;;;;;;5027438;28;20063;-73
2022/06/27 02:20:10;;;;;;;15.20;9.35;;;;;;;;;;5032253;28;20025;-73
2022/06/27 02:22:36;;;;;;;14.50;10.20;;;;;;;;;;5030777;28;20136;-74
2022/06/27 02:25:02;;;;;;;15.38;10.57;;;;;;;;;;5027391;28;20056;-73
2022/06/27 02:27:30;;;;;;;17.58;10.65;;;;;;;;;;5035788;28;20033;-73
2022/06/27 02:29:56;;;;;;;16.63;10.38;;;;;;;;;;5035952;28;20030;-72
2022/06/27 02:32:22;;;;;;;18.17;11.43;;;;;;;;;;5033181;28;20021;-74
2022/06/27 02:34:52;;;;;;;17.65;12.05;;;;;;;;;;5039959;28;20083;-75
2022/06/27 02:37:18;;;;;;;20.58;12.32;;;;;;;;;;5024236;28;20029;-73
2022/06/27 02:39:45;;;;;;;24.50;12.32;;;;;;;;;;5032596;28;20032;-74
2022/06/27 02:42:12;;;;;;;21.00;12.23;;;;;;;;;;5027804;28;20115;-74
2022/06/27 02:44:42;;;;;;;21.70;12.88;;;;;;;;;;5029875;28;20025;-74
2022/06/27 02:47:08;;;;;;;19.80;12.75;;;;;;;;;;5031539;28;20056;-73
2022/06/27 02:49:34;;;;;;;18.63;12.93;;;;;;;;;;5031495;28;20099;-73
2022/06/27 02:52:01;;;;;;;16.67;12.70;;;;;;;;;;5032400;28;20112;-72
2022/06/27 02:54:47;;;;;;;20.75;13.60;;;;;;;;;;5044996;28;20028;-74
2022/06/27 02:57:16;;;;;;;23.30;14.55;;;;;;;;;;5044697;28;20033;-74
2022/06/27 02:59:42;;;;;;;23.25;13.48;;;;;;;;;;5032748;28;20033;-74
2022/06/27 03:02:09;;;;;;;24.38;13.93;;;;;;;;;;5037093;28;20029;-74
2022/06/27 03:04:35;;;;;;;17.42;13.15;;;;;;;;;;5031352;28;20135;-74
2022/06/27 03:07:02;;;;;;;21.70;14.38;;;;;;;;;;5027714;28;20065;-75
2022/06/27 03:09:28;;;;;;;21.25;13.73;;;;;;;;;;5031041;28;20050;-74
2022/06/27 03:11:54;;;;;;;20.05;14.07;;;;;;;;;;5029245;28;20044;-75
2022/06/27 03:14:20;;;;;;;22.33;15.27;;;;;;;;;;5033798;28;20140;-74
2022/06/27 03:16:46;;;;;;;22.90;14.75;;;;;;;;;;5029150;28;20045;-75
2022/06/27 03:19:12;;;;;;;18.98;13.60;;;;;;;;;;5033329;28;20026;-76
2022/06/27 03:21:38;;;;;;;21.50;14.13;;;;;;;;;;5038571;28;20061;-75
2022/06/27 03:24:05;;;;;;;23.17;13.63;;;;;;;;;;5038145;28;20997;-74
2022/06/27 03:26:31;;;;;;;23.52;14.13;;;;;;;;;;5044933;28;20033;-76
2022/06/27 03:28:57;;;;;;;24.90;14.65;;;;;;;;;;5036483;28;20056;-75
2022/06/27 03:31:23;;;;;;;22.88;13.82;;;;;;;;;;5041429;28;20020;-75
2022/06/27 03:33:52;;;;;;;21.95;13.38;;;;;;;;;;5039913;28;20025;-73
2022/06/27 03:36:18;;;;;;;21.40;14.43;;;;;;;;;;5036218;28;20029;-75
2022/06/27 03:38:44;;;;;;;21.30;13.10;;;;;;;;;;5043098;28;20056;-75
2022/06/27 03:41:10;;;;;;;28.67;14.23;;;;;;;;;;5039404;28;20040;-76
2022/06/27 03:43:36;;;;;;;19.60;13.30;;;;;;;;;;5038483;28;20013;-75
2022/06/27 03:46:03;;;;;;;19.60;13.45;;;;;;;;;;5033025;28;20743;-76
2022/06/27 03:51:13;;;;;;;19.15;13.68;;;;;;;;;;5037065;28;20067;-76
2022/06/27 03:53:39;;;;;;;19.13;12.90;;;;;;;;;;5049869;28;20077;-75
2022/06/27 03:56:05;;;;;;;19.15;13.38;;;;;;;;;;5025159;28;20037;-76
2022/06/27 03:58:31;;;;;;;20.40;13.07;;;;;;;;;;5035067;28;20037;-75
2022/06/27 04:00:58;;;;;;;25.25;14.70;;;;;;;;;;5024679;28;20443;-76
2022/06/27 04:03:24;;;;;;;22.35;15.10;;;;;;;;;;5049728;28;20079;-75
2022/06/27 04:05:51;;;;;;;24.63;15.13;;;;;;;;;;5028322;28;20033;-75
2022/06/27 04:08:17;;;;;;;23.88;15.23;;;;;;;;;;5033968;28;20512;-75
2022/06/27 04:10:43;;;;;;;24.17;15.73;;;;;;;;;;5029740;28;20041;-76
2022/06/27 04:13:09;;;;;;;24.83;16.38;;;;;;;;;;5030457;28;20025;-75
2022/06/27 04:15:35;;;;;;;25.75;14.98;;;;;;;;;;5029790;28;20089;-76
2022/06/27 04:18:01;;;;;;;22.52;14.73;;;;;;;;;;5032414;28;20583;-73
2022/06/27 04:20:27;;;;;;;22.75;15.20;;;;;;;;;;5030286;28;20033;-74
2022/06/27 04:22:54;;;;;;;23.33;14.57;;;;;;;;;;5035054;28;20018;-74
2022/06/27 04:25:20;;;;;;;18.90;14.32;;;;;;;;;;5023195;28;20352;-74
2022/06/27 04:27:46;;;;;;;20.77;14.18;;;;;;;;;;5025333;28;20033;-74
2022/06/27 04:30:18;;;;;;;18.35;13.02;;;;;;;;;;5028967;28;20108;-74
2022/06/27 04:32:46;;;;;;;19.42;12.57;;;;;;;;;;5029211;28;20037;-75
2022/06/27 04:35:12;;;;;;;12.32;10.25;;;;;;;;;;5026069;28;20411;-73
2022/06/27 04:37:43;;;;;;;17.90;10.60;;;;;;;;;;5027847;28;20139;-73
2022/06/27 04:40:10;;;;;;;;;;;;;;;;;;5029366;28;20029;-74
2022/06/27 04:42:36;;;;;;;16.63;9.80;;;;;;;;;;5033109;28;20373;-73
2022/06/27 04:45:03;;;;;;;16.30;10.52;;;;;;;;;;5031563;28;20040;-74
2022/06/27 04:47:29;;;;;;;17.92;11.23;;;;;;;;;;5030095;28;20068;-74
2022/06/27 04:49:56;;;;;;;17.95;10.93;;;;;;;;;;5030427;28;20006;-74
2022/06/27 04:52:22;;;;;;;18.80;11.02;;;;;;;;;;5037284;28;20498;-73
2022/06/27 04:54:49;;;;;;;21.15;11.63;;;;;;;;;;5014663;28;20154;-74
2022/06/27 04:57:15;;;;;;;20.80;12.43;;;;;;;;;;5035830;28;20091;-73
2022/06/27 04:59:41;;;;;;;17.95;12.23;;;;;;;;;;5037078;28;20030;-72
2022/06/27 05:02:08;;;;;;;19.45;12.93;;;;;;;;;;5040259;28;20033;-74
2022/06/27 05:04:34;;;;;;;19.40;13.18;;;;;;;;;;5037802;28;20057;-73
2022/06/27 05:07:01;;;;;;;17.52;12.25;;;;;;;;;;5033229;28;20013;-73
2022/06/27 05:09:27;;;;;;;22.92;13.27;;;;;;;;;;5031877;28;20044;-71
2022/06/27 05:11:54;;;;;;;18.77;13.80;;;;;;;;;;5033050;28;20033;-72
2022/06/27 05:14:20;;;;;;;19.77;13.02;;;;;;;;;;5029891;28;20455;-72
2022/06/27 05:16:47;;;;;;;21.05;13.00;;;;;;;;;;5026973;28;20037;-72
2022/06/27 05:19:14;;;;;;;24.75;13.40;;;;;;;;;;5047446;28;20113;-72
2022/06/27 05:21:40;;;;;;;22.98;14.23;;;;;;;;;;5019811;28;20036;-72
2022/06/27 05:24:06;;;;;;;17.52;13.07;;;;;;;;;;5031164;28;20116;-74
2022/06/27 05:26:32;;;;;;;26.42;12.93;;;;;;;;;;5032465;28;20144;-73
2022/06/27 05:29:01;;;;;;;23.55;13.00;;;;;;;;;;5029421;28;20106;-72
2022/06/27 05:31:27;;;;;;;23.02;14.15;;;;;;;;;;5021789;28;20022;-72
2022/06/27 05:33:54;;;;;;;19.27;12.90;;;;;;;;;;5031353;28;20034;-72
2022/06/27 05:36:21;;;;;;;18.67;13.05;;;;;;;;;;5022073;28;20099;-72
2022/06/27 05:38:48;;;;;;;16.98;12.23;;;;;;;;;;5028754;28;20022;-70
2022/06/27 05:41:14;;;;;;;18.52;12.50;;;;;;;;;;5028450;28;20029;-71
2022/06/27 05:43:41;;;;;;;15.07;12.48;;;;;;;;;;5031169;28;20035;-72
2022/06/27 05:46:07;;;;;;;17.05;12.63;;;;;;;;;;5033533;28;20475;-72
2022/06/27 05:48:33;;;;;;;17.52;12.20;;;;;;;;;;5042013;28;20029;-72
2022/06/27 05:51:00;;;;;;;18.38;12.23;;;;;;;;;;5035967;28;20036;-73
2022/06/27 05:53:28;;;;;;;19.88;12.32;;;;;;;;;;5033763;28;20025;-72
2022/06/27 05:55:54;;;;;;;20.48;12.68;;;;;;;;;;5037033;28;20072;-73
2022/06/27 05:58:21;;;;;;;19.88;13.07;;;;;;;;;;5045495;28;20124;-72
2022/06/27 06:00:47;;;;;;;19.63;13.27;;;;;;;;;;5038004;28;20029;-71
2022/06/27 06:03:13;;;;;;;21.50;13.07;;;;;;;;;;5037777;28;20045;-73
2022/06/27 06:05:41;;;;;;;19.08;13.48;;;;;;;;;;5039807;28;20235;-71
2022/06/27 06:08:08;;;;;;;18.70;13.80;;;;;;;;;;5037969;28;20041;-73
2022/06/27 06:10:34;;;;;;;20.70;14.32;;;;;;;;;;5039761;28;20033;-73
2022/06/27 06:13:01;;;;;;;22.05;13.93;;;;;;;;;;5038294;28;20043;-74
2022/06/27 06:15:27;;;;;;;20.75;14.35;;;;;;;;;;5040683;28;20025;-72
2022/06/27 06:17:54;;;;;;;26.05;14.63;;;;;;;;;;5035008;28;20033;-72
2022/06/27 06:20:21;;;;;;;23.02;14.45;;;;;;;;;;5033329;28;20041;-72
2022/06/27 06:22:47;;;;;;;19.75;15.00;;;;;;;;;;5031169;28;20033;-73
2022/06/27 06:25:13;;;;;;;21.10;15.25;;;;;;;;;;5031640;28;20403;-73
2022/06/27 06:27:40;;;;;;;23.98;15.30;;;;;;;;;;5032373;28;20092;-72
2022/06/27 06:30:07;;;;;;;24.55;15.10;;;;;;;;;;5028933;28;20121;-73
2022/06/27 06:32:34;;;;;;;22.58;15.93;;;;;;;;;;5032638;28;20116;-71
2022/06/27 06:35:02;;;;;;;18.17;14.45;;;;;;;;;;5032773;28;20037;-72
2022/06/27 06:37:29;;;;;;;21.60;15.63;;;;;;;;;;5035163;28;20337;-72
2022/06/27 06:39:55;;;;;;;21.83;15.30;;;;;;;;;;5032495;28;20022;-71
2022/06/27 06:42:21;;;;;;;17.25;14.50;;;;;;;;;;5030608;28;20025;-72
2022/06/27 06:44:47;;;;;;;27.58;14.35;;;;;;;;;;5016791;28;20049;-72
2022/06/27 06:47:14;;;;;;;20.65;13.80;;;;;;;;;;5018612;28;20030;-71
2022/06/27 06:49:41;;;;;;;17.92;13.75;;;;;;;;;;5031764;28;20029;-72
2022/06/27 06:52:09;;;;;;;20.95;14.23;;;;;;;;;;5039207;28;20076;-72
2022/06/27 06:54:36;;;;;;;23.98;14.00;;;;;;;;;;5042639;28;20021;-72
2022/06/27 06:57:03;;;;;;;25.48;13.48;;;;;;;;;;5036932;28;20517;-73
2022/06/27 06:59:29;;;;;;;21.08;13.15;;;;;;;;;;5039669;28;20422;-74
2022/06/27 07:01:55;;;;;;;20.23;13.00;;;;;;;;;;5042272;28;20036;-72
2022/06/27 07:04:21;;;;;;;20.30;12.68;;;;;;;;;;5039397;28;20053;-73
2022/06/27 07:06:48;;;;;;;23.27;13.68;;;;;;;;;;5038293;28;20053;-73
2022/06/27 07:09:14;;;;;;;35.65;14.15;;;;;;;;;;5034010;28;20091;-73
2022/06/27 07:11:40;;;;;;;20.80;13.45;;;;;;;;;;5015525;28;20050;-73
2022/06/27 07:14:07;;;;;;;25.50;13.32;;;;;;;;;;5012901;28;20041;-73
2022/06/27 07:16:33;;;;;;;26.58;13.73;;;;;;;;;;5018802;28;20038;-72
2022/06/27 07:19:03;;;;;;;23.25;13.48;;;;;;;;;;5031393;28;20025;-72
2022/06/27 07:21:31;;;;;;;21.77;12.07;;;;;;;;;;5032293;28;20033;-73
2022/06/27 07:23:58;;;;;;;23.38;12.80;;;;;;;;;;5031790;28;20021;-74
2022/06/27 07:26:27;;;;;;;19.42;13.18;;;;;;;;;;5032250;28;20017;-73
2022/06/27 07:28:53;;;;;;;16.83;12.57;;;;;;;;;;5030484;28;20034;-73
2022/06/27 07:31:20;;;;;;;17.15;11.95;;;;;;;;;;5032407;28;20034;-71
2022/06/27 07:33:51;;;;;;;16.98;12.23;;;;;;;;;;5035248;28;20029;-73
2022/06/27 07:36:18;;;;;;;18.85;13.40;;;;;;;;;;5036563;28;20025;-72
2022/06/27 07:38:46;;;;;;;17.98;13.73;;;;;;;;;;5037230;28;20064;-71
2022/06/27 07:41:13;;;;;;;20.70;13.55;;;;;;;;;;5037472;28;20094;-71
2022/06/27 07:43:40;;;;;;;23.83;13.00;;;;;;;;;;5038998;28;20100;-72
2022/06/27 07:46:06;;;;;;;18.40;13.23;;;;;;;;;;5040616;28;20864;-73
2022/06/27 07:48:32;;;;;;;25.83;14.20;;;;;;;;;;5038892;28;20075;-72
2022/06/27 07:50:58;;;;;;;19.17;13.40;;;;;;;;;;5038786;28;20084;-73
2022/06/27 07:53:25;;;;;;;21.90;14.10;;;;;;;;;;5041168;28;20334;-73
2022/06/27 07:55:56;;;;;;;22.23;14.38;;;;;;;;;;5041254;28;20030;-73
2022/06/27 07:58:30;;;;;;;23.15;14.23;;;;;;;;;;5039043;28;20510;-73
2022/06/27 08:00:57;;;;;;;16.80;13.45;;;;;;;;;;5034267;28;20085;-73
2022/06/27 08:06:18;;;;;;;20.40;13.82;;;;;;;;;;5032371;28;20072;-72
2022/06/27 08:08:49;;;;;;;25.92;14.82;;;;;;;;;;5031118;28;20056;-72
2022/06/27 08:11:18;;;;;;;19.83;13.40;;;;;;;;;;5029152;28;20037;-72
2022/06/27 08:13:45;;;;;;;25.80;13.43;;;;;;;;;;5031418;28;20037;-72
2022/06/27 08:16:15;;;;;;;17.73;13.75;;;;;;;;;;5031199;28;20172;-72
2022/06/27 08:18:48;;;;;;;23.58;13.85;;;;;;;;;;5031792;28;20091;-72
2022/06/27 08:21:19;;;;;;;18.38;13.40;;;;;;;;;;5024415;28;20030;-73
2022/06/27 08:23:46;;;;;;;23.75;13.70;;;;;;;;;;5020289;28;20077;-71
2022/06/27 08:26:13;;;;;;;22.95;13.65;;;;;;;;;;5031997;28;20032;-72
2022/06/27 08:28:40;;;;;;;16.05;13.73;;;;;;;;;;5017194;28;20029;-71
2022/06/27 08:31:10;;;;;;;23.77;13.27;;;;;;;;;;5028933;28;20136;-71
2022/06/27 08:33:37;;;;;;;27.02;13.43;;;;;;;;;;5039206;28;20029;-74
2022/06/27 08:36:04;;;;;;;16.88;12.75;;;;;;;;;;5038401;28;20112;-71
2022/06/27 08:38:42;;;;;;;22.73;12.93;;;;;;;;;;5041256;28;20108;-73
2022/06/27 08:41:09;;;;;;;21.17;12.70;;;;;;;;;;5040744;28;20045;-72
2022/06/27 08:43:36;;;;;;;18.10;12.25;;;;;;;;;;5038485;28;20470;-73
2022/06/27 08:46:03;;;;;;;18.17;12.35;;;;;;;;;;5037895;28;20030;-74
2022/06/27 08:48:31;;;;;;;21.67;13.50;;;;;;;;;;5041202;28;20064;-74
2022/06/27 08:50:59;;;;;;;21.20;12.20;;;;;;;;;;5037538;28;20029;-73
2022/06/27 08:53:26;;;;;;;18.08;12.40;;;;;;;;;;5034159;28;20025;-73
2022/06/27 08:55:52;;;;;;;19.33;12.18;;;;;;;;;;5033246;28;20030;-73
2022/06/27 08:58:19;;;;;;;17.20;12.18;;;;;;;;;;5031925;28;20075;-73
2022/06/27 09:00:45;;;;;;;23.45;12.20;;;;;;;;;;5024225;28;20026;-71
2022/06/27 09:03:12;;;;;;;20.73;12.65;;;;;;;;;;5009312;28;20026;-73
2022/06/27 09:05:39;;;;;;;22.50;12.85;;;;;;;;;;5015730;28;20090;-73
2022/06/27 09:08:07;;;;;;;19.42;11.98;;;;;;;;;;5029896;28;20104;-72
2022/06/27 09:10:39;;;;;;;20.05;11.68;;;;;;;;;;5030765;28;20100;-73
2022/06/27 09:13:12;;;;;;;17.85;11.70;;;;;;;;;;5050258;28;20529;-72
2022/06/27 09:15:38;;;;;;;18.60;12.00;;;;;;;;;;5035316;28;20037;-72
2022/06/27 09:18:08;;;;;;;16.48;10.95;;;;;;;;;;5035768;28;20106;-73
2022/06/27 09:20:49;;;;;;;16.35;11.07;;;;;;;;;;5037549;28;20092;-72
2022/06/27 09:23:39;;;;;;;18.67;11.73;;;;;;;;;;5038573;28;20037;-72
2022/06/27 09:26:12;;;;;;;16.98;11.20;;;;;;;;;;5035007;28;20123;-71
2022/06/27 09:28:39;;;;;;;19.60;11.35;;;;;;;;;;5032780;28;20509;-71
2022/06/27 09:31:09;;;;;;;16.17;9.88;;;;;;;;;;5030461;28;20035;-73
2022/06/27 09:33:37;;;;;;;20.95;10.82;;;;;;;;;;5029171;28;20044;-73
2022/06/27 09:36:10;;;;;;;14.55;9.82;;;;;;;;;;5028157;28;20041;-73
2022/06/27 09:38:39;;;;;;;19.40;9.13;;;;;;;;;;5030608;28;20334;-72
2022/06/27 09:41:06;;;;;;;19.00;9.80;;;;;;;;;;5024962;28;20030;-72
2022/06/27 09:43:34;;;;;;;16.65;9.05;;;;;;;;;;5013283;28;20041;-72
2022/06/27 09:46:02;;;;;;;19.02;9.55;;;;;;;;;;5023240;28;20021;-72
2022/06/27 09:48:28;;;;;;;16.10;9.70;;;;;;;;;;5031538;28;20037;-73
2022/06/27 09:50:54;;;;;;;16.63;9.25;;;;;;;;;;5035551;28;20116;-71
2022/06/27 09:53:26;;;;;;;17.15;8.73;;;;;;;;;;5052138;28;20248;-73
2022/06/27 09:55:53;;;;;;;15.43;9.45;;;;;;;;;;5024015;28;20113;-71
2022/06/27 09:58:19;;;;;;;15.50;9.00;;;;;;;;;;5037492;28;20119;-73
2022/06/27 10:00:47;;;;;;;16.70;9.25;;;;;;;;;;5040951;28;20061;-72
2022/06/27 10:03:13;;;;;;;16.58;10.45;;;;;;;;;;5042406;28;20037;-70
2022/06/27 10:05:41;;;;;;;19.80;10.63;;;;;;;;;;5037786;28;20545;-73
2022/06/27 10:08:08;;;;;;;17.15;10.75;;;;;;;;;;5034390;28;20033;-72
2022/06/27 10:10:53;;;;;;;16.45;9.30;;;;;;;;;;5035223;28;20159;-72
2022/06/27 10:13:19;;;;;;;13.90;7.05;;;;;;;;;;5035589;28;20491;-72
2022/06/27 10:15:48;;;;;;;14.00;7.20;;;;;;;;;;5034012;28;20083;-73
2022/06/27 10:18:14;;;;;;;17.52;8.90;;;;;;;;;;5033045;28;20029;-73
2022/06/27 10:20:47;;;;;;;12.40;7.70;;;;;;;;;;5033797;28;20204;-72
2022/06/27 10:23:18;;;;;;;13.48;7.85;;;;;;;;;;5035186;28;20044;-73
2022/06/27 10:25:45;;;;;;;14.52;8.15;;;;;;;;;;5034124;28;20028;-72
2022/06/27 10:28:14;;;;;;;13.15;7.88;;;;;;;;;;5032510;28;20104;-73
2022/06/27 10:30:47;;;;;;;10.73;7.57;;;;;;;;;;5032026;28;20033;-73
2022/06/27 10:33:19;;;;;;;16.25;8.38;;;;;;;;;;5032989;28;20556;-72
2022/06/27 10:35:57;;;;;;;14.52;8.43;;;;;;;;;;5031659;28;20021;-72
2022/06/27 10:38:30;;;;;;;16.08;8.25;;;;;;;;;;5016359;28;20038;-72
2022/06/27 10:40:57;;;;;;;17.77;9.63;;;;;;;;;;5031802;28;20391;-72
2022/06/27 10:43:42;;;;;;;18.00;8.65;;;;;;;;;;5031622;28;20565;-71
2022/06/27 10:46:11;;;;;;;17.75;9.07;;;;;;;;;;5032300;28;20516;-73
2022/06/27 10:48:37;;;;;;;20.10;9.43;;;;;;;;;;5024065;28;20060;-73
2022/06/27 10:51:24;;;;;;;15.63;9.07;;;;;;;;;;5033770;28;20037;-71
2022/06/27 10:53:51;;;;;;;12.82;9.13;;;;;;;;;;5036141;28;20574;-72
2022/06/27 10:56:29;;;;;;;17.05;9.00;;;;;;;;;;5036161;28;20030;-72
2022/06/27 10:58:56;;;;;;;23.73;10.05;;;;;;;;;;5036849;28;20073;-73
2022/06/27 11:01:22;;;;;;;14.52;9.30;;;;;;;;;;5039306;28;20034;-73
2022/06/27 11:03:48;;;;;;;15.52;8.57;;;;;;;;;;5040727;28;20033;-72
2022/06/27 11:06:15;;;;;;;15.30;9.70;;;;;;;;;;5040915;28;20172;-72
2022/06/27 11:08:42;;;;;;;18.63;10.45;;;;;;;;;;5040937;28;20037;-72
2022/06/27 11:11:15;;;;;;;17.38;9.30;;;;;;;;;;5044243;28;20010;-72
2022/06/27 11:13:47;;;;;;;24.80;9.52;;;;;;;;;;5041247;28;20036;-72
2022/06/27 11:16:15;;;;;;;13.32;8.50;;;;;;;;;;5039756;28;20056;-71
2022/06/27 11:18:47;;;;;;;14.23;8.63;;;;;;;;;;5035923;28;20037;-72
2022/06/27 11:21:14;;;;;;;19.63;8.57;;;;;;;;;;5035643;28;20092;-73
2022/06/27 11:23:57;;;;;;;13.50;9.48;;;;;;;;;;5033015;28;20026;-72
2022/06/27 11:26:24;;;;;;;15.18;9.82;;;;;;;;;;5022980;28;20033;-73
2022/06/27 11:34:24;;;;;;;15.20;10.45;;;;;;;;;;5031138;28;20076;-71
2022/06/27 11:36:51;;;;;;;15.98;10.45;;;;;;;;;;5035140;28;20124;-72
2022/06/27 11:39:22;;;;;;;17.85;10.85;;;;;;;;;;5037434;28;20029;-68
2022/06/27 11:41:54;;;;;;;15.50;10.57;;;;;;;;;;5040800;28;20021;-73
2022/06/27 11:44:20;;;;;;;17.15;10.60;;;;;;;;;;5043904;28;20247;-72
2022/06/27 11:46:46;;;;;;;19.70;10.40;;;;;;;;;;5034036;28;20041;-72
2022/06/27 11:49:14;;;;;;;22.00;11.30;;;;;;;;;;5036817;28;20041;-73
2022/06/27 11:51:48;;;;;;;13.38;9.57;;;;;;;;;;5034938;28;20152;-72
2022/06/27 11:54:14;;;;;;;15.27;10.10;;;;;;;;;;5045563;28;20075;-71
2022/06/27 11:56:44;;;;;;;17.50;10.07;;;;;;;;;;5040936;28;20465;-70
2022/06/27 11:59:11;;;;;;;20.83;10.95;;;;;;;;;;5052429;28;20024;-71
2022/06/27 12:01:38;;;;;;;16.27;10.55;;;;;;;;;;5045467;28;20009;-74
2022/06/27 12:04:12;;;;;;;20.40;11.05;;;;;;;;;;5044244;28;20435;-73
2022/06/27 12:06:42;;;;;;;19.30;10.98;;;;;;;;;;5048183;28;20048;-73
2022/06/27 12:09:08;;;;;;;15.73;11.20;;;;;;;;;;5029455;28;20064;-73
2022/06/27 12:11:34;;;;;;;18.35;11.60;;;;;;;;;;5048959;28;20844;-74
2022/06/27 12:14:00;;;;;;;18.58;12.77;;;;;;;;;;5047618;28;20032;-71
2022/06/27 12:16:26;;;;;;;18.75;11.55;;;;;;;;;;5044952;28;20178;-73
2022/06/27 12:18:52;;;;;;;19.10;9.75;;;;;;;;;;5047921;28;20048;-72
2022/06/27 12:21:19;;;;;;;13.95;8.25;;;;;;;;;;5040174;28;20082;-71
2022/06/27 12:23:46;;;;;;;16.30;8.30;;;;;;;;;;5043597;28;20032;-73
2022/06/27 12:26:12;;;;;;;15.35;7.78;;;;;;;;;;5036708;28;20065;-74
2022/06/27 12:28:40;;;;;;;21.75;8.95;;;;;;;;;;5019903;28;20030;-73
2022/06/27 12:31:06;;;;;;;18.25;7.35;;;;;;;;;;5029411;28;20017;-72
2022/06/27 12:33:32;;;;;;;14.80;5.70;;;;;;;;;;5011870;28;20125;-73
2022/06/27 12:35:58;;;;;;;9.45;4.53;;;;;;;;;;5020296;28;20111;-74
2022/06/27 12:38:24;;;;;;;16.33;4.68;;;;;;;;;;5026413;28;20065;-72
2022/06/27 12:40:50;;;;;;;16.42;4.00;;;;;;;;;;5026015;28;20045;-72
2022/06/27 12:43:16;;;;;;;11.05;5.50;;;;;;;;;;5011153;28;20022;-72
2022/06/27 12:45:42;;;;;;;16.83;6.70;;;;;;;;;;5023189;28;20113;-73
2022/06/27 12:48:09;;;;;;;16.80;5.78;;;;;;;;;;5029204;28;20137;-73
2022/06/27 12:50:36;;;;;;;13.60;4.85;;;;;;;;;;5029355;28;20056;-72
2022/06/27 12:53:02;;;;;;;8.30;4.95;;;;;;;;;;5031328;28;20033;-72
2022/06/27 12:55:28;;;;;;;8.98;4.97;;;;;;;;;;5029386;28;21566;-72
2022/06/27 12:57:54;;;;;;;14.32;5.40;;;;;;;;;;5012923;28;20044;-74
2022/06/27 13:00:20;;;;;;;9.82;4.10;;;;;;;;;;5016075;28;20056;-72
2022/06/27 13:02:46;;;;;;;10.85;5.22;;;;;;;;;;5033818;28;20037;-72
2022/06/27 13:05:12;;;;;;;11.55;5.40;;;;;;;;;;5032598;28;20060;-72
2022/06/27 13:07:38;;;;;;;13.82;6.35;;;;;;;;;;5036700;28;20048;-72
2022/06/27 13:10:05;;;;;;;13.82;5.30;;;;;;;;;;5037371;28;20029;-71
2022/06/27 13:12:31;;;;;;;12.15;4.95;;;;;;;;;;5036219;28;20091;-71
2022/06/27 13:14:57;;;;;;;9.98;5.40;;;;;;;;;;5030954;28;20613;-72
2022/06/27 13:17:24;;;;;;;12.18;5.88;;;;;;;;;;5035481;28;20037;-72
2022/06/27 13:19:51;;;;;;;11.23;5.00;;;;;;;;;;5034809;28;20033;-70
2022/06/27 13:22:18;;;;;;;10.57;5.40;;;;;;;;;;5031524;28;20395;-71
2022/06/27 13:24:44;;;;;;;13.27;6.07;;;;;;;;;;5030344;28;20028;-73
2022/06/27 13:27:10;;;;;;;14.75;6.55;;;;;;;;;;5026091;28;20064;-72
2022/06/27 13:29:36;;;;;;;19.95;6.75;;;;;;;;;;5019225;28;20487;-73
2022/06/27 13:32:02;;;;;;;12.07;6.45;;;;;;;;;;5027831;28;20069;-72
2022/06/27 13:34:29;;;;;;;16.65;7.60;;;;;;;;;;5028663;28;20030;-71
2022/06/27 13:36:55;;;;;;;17.63;8.88;;;;;;;;;;5026652;28;20037;-71
2022/06/27 13:39:24;;;;;;;21.20;9.93;;;;;;;;;;5027156;28;20069;-71
2022/06/27 13:41:50;;;;;;;29.95;12.57;;;;;;;;;;5030041;28;20053;-72
2022/06/27 13:44:16;;;;;;;19.23;13.02;;;;;;;;;;5028018;28;20032;-72
2022/06/27 13:46:42;;;;;;;13.63;7.88;;;;;;;;;;5021474;28;20117;-72
2022/06/27 13:49:08;;;;;;;14.50;5.22;;;;;;;;;;5027723;28;20068;-71
2022/06/27 13:51:34;;;;;;;9.23;4.70;;;;;;;;;;5029062;28;20032;-72
2022/06/27 13:54:01;;;;;;;11.13;4.00;;;;;;;;;;5028744;28;20037;-73
2022/06/27 13:56:27;;;;;;;10.88;4.13;;;;;;;;;;5028361;28;20033;-72
2022/06/27 13:58:53;;;;;;;11.57;3.28;;;;;;;;;;5030912;28;20033;-72
2022/06/27 14:01:19;;;;;;;6.63;3.17;;;;;;;;;;5045823;28;20033;-72
2022/06/27 14:03:45;;;;;;;6.25;3.05;;;;;;;;;;5032060;28;20109;-72
2022/06/27 14:08:57;;;;;;;6.97;3.50;;;;;;;;;;5031705;28;20121;-71
2022/06/27 14:11:23;;;;;;;7.53;4.45;;;;;;;;;;5028846;28;20200;-72
2022/06/27 14:13:49;;;;;;;6.20;3.63;;;;;;;;;;5027685;28;20136;-73
2022/06/27 14:16:20;;;;;;;12.60;3.70;;;;;;;;;;5006499;28;20026;-73
2022/06/27 14:18:46;;;;;;;11.90;4.05;;;;;;;;;;5018707;28;20525;-72
2022/06/27 14:21:12;;;;;;;10.77;5.05;;;;;;;;;;5022185;28;20033;-73
2022/06/27 14:23:38;;;;;;;10.40;4.93;;;;;;;;;;5021928;28;20080;-72
2022/06/27 14:26:04;;;;;;;8.90;5.05;;;;;;;;;;5038984;28;20120;-73
2022/06/27 14:28:30;;;;;;;12.05;5.65;;;;;;;;;;5026304;28;20056;-72
2022/06/27 14:30:56;;;;;;;13.00;5.80;;;;;;;;;;5027778;28;20060;-73
2022/06/27 14:33:23;;;;;;;11.48;5.97;;;;;;;;;;5031730;28;20041;-73
2022/06/27 14:35:49;;;;;;;11.50;5.70;;;;;;;;;;5032001;28;20042;-73
2022/06/27 14:38:15;;;;;;;13.00;5.85;;;;;;;;;;5030968;28;20025;-73
2022/06/27 14:40:41;;;;;;;11.68;6.30;;;;;;;;;;5028188;28;20396;-73